Nationale Sud-Est Forcalquier (04) - K

Date : 20/05/2012

Place Nom Licence Catégorie Club Temps CN à J-60 Points Différence Nouveau CN
1 HABERKORN Chloé 10396 D16 2105BO 0:32:01 5412 4797 -615 5291
2 DROIN Solène 17925 D16 4201RA 0:32:23 4459 4743 +284 5009
3 BODY Mathilde 10184 D16 7305RA 0:33:36 5114 4571 -543 5134
4 GIRARD Lucille 19689 D16 3705CE 0:35:15 4846 4357 -489 4835
5 GUILLEMET Océane 22819 D16 3318AQ 0:36:19 3706 4229 +523 4553
6 VALETTE Marion 10430 D16 6913RA 0:39:06 3500 3928 +428 3720
7 BERRARD Anna 19762 D16 2607RA 0:39:32 3727 3885 +158 3899
8 BORNARD Julie 9402 D16 7305RA 0:40:12 3937 3821 -116 4505
9 ELIAS Pauline 16137 D16 1307PR 0:40:35 3486 3785 +299 3544
10 PICAZO Marie 16555 D16 8405PR 0:40:46 3878 3768 -110 4042
11 FOL Loreline 16393 D16 3105MP 0:43:01 3214 3570 +356 3929
12 LEMERCIER Victoire 11454 D16 5407LO 0:46:32 3608 3301 -307 3672
13 RIVOLLIER Isaline 22451 D16 4201RA 0:46:36 3898 3296 -602 4181
14 DEFIX Julia 19894 D16 4203RA 0:48:34 3563 3162 -401 3465
15 BASSET Fiona 23384 D16 6911RA 0:49:05 3982 3129 -853 4071
16 DELENNE Camilla 13800 D16 1307PR 0:52:37 3712 2919 -793 3802
17 BESTEL Sandra 10758 D16 9105IF 0:54:57 3583 2795 -788 3678
18 CHAILLARD Dana 12045 D16 7305RA 1:01:20 2609 2504 -105 2722
19 BERRIEN Coline 18765 D16 1303PR 1:08:54 2355 2229 -126 2480
20 DEGORS Marine 25439 D16 3809RA 1:13:08 2100 1888
21 RIOU BENARD Clara 26494 D18 8311AZ 1:16:56 1996 1876
22 CHATAGNIER Clea 11106 D16 7404RA 1:23:39 1854 1836 -18 1898
23 COURDIER Mathilde 24386 D16 8404PR 1:55:44 1254 1327 +73 1274
PETER-JAN Lucile 19276 D16 3705CE pm 4565 0 4552
BEGUINOT Claire 13961 D16 5702LO pm 0 0 2757
JALLADE Mathilde 25649 D16 8404PR pm 0 0
BISSIERE Camille 19486 D16 4709AQ pm 4031 0 3932